Time;durP1;ratioP1;P1;durP2;ratioP2;P2;SDS_P1;SDS_P2;PMS_P1;PMS_P2;Temp;Humidity;BMP_temperature;BMP_pressure;BME280_temperature;BME280_humidity;BME280_pressure;Samples;Min_cycle;Max_cycle;Signal;HPM_P1;HPM_P2
2022/04/19 04:01:34;;;;;;;10.53;6.13;;;;;;;;;;5436108;23;20488;-76
2022/04/19 04:03:59;;;;;;;6.97;5.10;;;1.80;96.30;;;;;;4994197;28;20417;-76
2022/04/19 04:06:25;;;;;;;7.00;4.43;;;1.70;96.30;;;;;;4994460;28;20178;-76
2022/04/19 04:08:51;;;;;;;6.83;4.20;;;;;;;;;;4976484;28;20190;-76
2022/04/19 04:11:17;;;;;;;6.37;4.00;;;1.60;96.30;;;;;;4976903;28;20425;-75
2022/04/19 04:13:43;;;;;;;6.00;4.03;;;1.60;96.30;;;;;;4996036;28;20169;-75
2022/04/19 04:16:08;;;;;;;5.73;3.93;;;1.60;96.30;;;;;;5000859;28;20468;-75
2022/04/19 04:18:34;;;;;;;5.17;3.47;;;;;;;;;;4999943;28;20633;-75
2022/04/19 04:21:00;;;;;;;4.63;3.03;;;;;;;;;;4998891;28;20343;-75
2022/04/19 04:23:26;;;;;;;6.73;3.20;;;1.70;96.30;;;;;;4994360;28;20420;-75
2022/04/19 04:25:52;;;;;;;7.53;3.87;;;1.60;96.30;;;;;;4976832;28;20174;-75
2022/04/19 04:28:17;;;;;;;7.07;4.63;;;1.70;96.30;;;;;;4994806;28;20467;-75
2022/04/19 04:30:43;;;;;;;8.50;4.13;;;1.70;96.30;;;;;;4994147;28;20259;-74
2022/04/19 04:33:08;;;;;;;12.00;3.70;;;1.80;96.30;;;;;;4994094;28;20173;-75
2022/04/19 04:35:34;;;;;;;3.47;3.03;;;1.90;96.30;;;;;;4976497;28;20917;-77
2022/04/19 04:37:59;;;;;;;4.27;3.07;;;2.00;96.30;;;;;;4993493;28;20205;-77
2022/04/19 04:40:25;;;;;;;7.23;5.60;;;2.00;96.30;;;;;;4976395;28;20181;-77
2022/04/19 04:42:50;;;;;;;9.90;7.87;;;2.20;96.30;;;;;;4994142;28;20209;-77
2022/04/19 04:45:16;;;;;;;7.53;5.40;;;2.30;96.30;;;;;;4976462;28;20200;-75
2022/04/19 04:50:25;;;;;;;9.77;6.10;;;2.50;96.30;;;;;;4994043;28;20237;-77
2022/04/19 04:52:52;;;;;;;7.03;5.03;;;2.70;96.30;;;;;;4994076;28;20417;-76
2022/04/19 04:55:18;;;;;;;4.13;3.37;;;2.80;96.30;;;;;;4976349;28;20200;-75
2022/04/19 04:57:43;;;;;;;5.73;3.97;;;2.90;96.30;;;;;;4992899;28;20471;-76
2022/04/19 05:00:09;;;;;;;3.70;3.27;;;2.80;96.30;;;;;;4974808;28;20181;-75
2022/04/19 05:02:35;;;;;;;5.97;4.10;;;2.80;96.30;;;;;;4975773;28;20248;-77
2022/04/19 05:05:01;;;;;;;4.93;4.00;;;;;;;;;;4976057;28;20408;-75
2022/04/19 05:07:26;;;;;;;3.70;3.33;;;2.90;96.30;;;;;;4992976;28;20935;-76
2022/04/19 05:09:53;;;;;;;4.37;3.47;;;;;;;;;;4992981;28;20413;-77
2022/04/19 05:12:19;;;;;;;4.33;3.40;;;3.20;96.30;;;;;;4993093;28;20673;-77
2022/04/19 05:14:45;;;;;;;4.20;3.50;;;;;;;;;;4993483;28;20484;-74
2022/04/19 05:17:11;;;;;;;3.80;3.40;;;;;;;;;;4992236;28;20692;-75
2022/04/19 05:19:37;;;;;;;4.70;2.83;;;;;;;;;;4993752;28;20757;-77
2022/04/19 05:22:02;;;;;;;5.40;3.60;;;3.20;96.30;;;;;;4994300;28;20523;-76
2022/04/19 05:24:28;;;;;;;6.67;4.13;;;;;;;;;;4976829;28;20344;-78
2022/04/19 05:26:54;;;;;;;5.00;3.07;;;3.30;96.30;;;;;;4993450;28;20184;-77
2022/04/19 05:29:19;;;;;;;6.00;2.73;;;3.40;96.30;;;;;;4993041;28;20416;-79
2022/04/19 05:31:45;;;;;;;4.30;3.30;;;;;;;;;;4992010;28;20701;-75
2022/04/19 05:34:11;;;;;;;4.93;3.40;;;4.00;96.30;;;;;;4975820;28;20181;-76
2022/04/19 05:36:36;;;;;;;4.50;3.33;;;3.90;96.30;;;;;;4992875;28;20684;-75
2022/04/19 05:39:02;;;;;;;5.77;4.07;;;4.20;96.30;;;;;;4992523;28;20174;-75
2022/04/19 05:41:28;;;;;;;6.93;3.97;;;4.40;96.30;;;;;;4992956;28;20189;-75
2022/04/19 05:43:53;;;;;;;5.40;4.10;;;4.50;96.30;;;;;;4986936;28;20428;-76
2022/04/19 05:46:20;;;;;;;3.73;3.33;;;4.90;96.30;;;;;;4992851;28;20189;-77
2022/04/19 05:48:46;;;;;;;7.17;4.03;;;6.30;96.30;;;;;;4968755;28;20191;-76
2022/04/19 05:51:12;;;;;;;8.50;3.93;;;8.30;96.30;;;;;;4964174;28;20441;-76
2022/04/19 05:53:39;;;;;;;4.83;3.13;;;9.40;96.30;;;;;;4976374;28;20905;-76
2022/04/19 05:56:05;;;;;;;3.90;3.23;;;10.30;96.30;;;;;;4987577;28;20967;-80
2022/04/19 05:58:30;;;;;;;5.23;3.53;;;10.30;96.30;;;;;;4992874;28;20417;-76
2022/04/19 06:00:56;;;;;;;12.50;4.00;;;11.00;96.30;;;;;;4992675;28;20985;-76
2022/04/19 06:06:06;;;;;;;5.50;3.40;;;11.40;96.30;;;;;;4992861;28;20231;-77
2022/04/19 06:08:32;;;;;;;6.40;3.60;;;11.30;96.30;;;;;;4991713;28;20405;-76
2022/04/19 06:10:58;;;;;;;5.87;3.87;;;12.20;96.30;;;;;;4992401;28;20498;-77
2022/04/19 06:13:23;;;;;;;4.60;3.43;;;12.00;96.30;;;;;;4992569;28;20173;-76
2022/04/19 06:15:49;;;;;;;4.70;3.60;;;;;;;;;;4992565;28;20181;-76
2022/04/19 06:18:15;;;;;;;3.87;3.57;;;12.30;96.30;;;;;;4974473;28;20235;-76
2022/04/19 06:20:40;;;;;;;5.57;3.77;;;13.00;93.70;;;;;;4992219;28;20244;-77
2022/04/19 06:23:06;;;;;;;4.73;3.40;;;13.10;93.90;;;;;;4992430;28;20177;-77
2022/04/19 06:25:32;;;;;;;5.13;3.23;;;;;;;;;;4992863;28;20216;-77
2022/04/19 06:27:57;;;;;;;3.80;3.50;;;12.70;92.10;;;;;;4993441;28;20188;-76
2022/04/19 06:30:24;;;;;;;3.77;3.47;;;12.90;90.60;;;;;;4996353;28;20181;-76
2022/04/19 06:32:53;;;;;;;4.73;3.50;;;12.80;91.80;;;;;;4996475;28;20189;-76
2022/04/19 06:35:18;;;;;;;3.20;2.90;;;12.80;91.00;;;;;;4996470;28;20900;-77
2022/04/19 06:37:44;;;;;;;6.80;4.10;;;12.90;90.70;;;;;;4995746;28;20475;-76
2022/04/19 06:40:10;;;;;;;8.60;3.40;;;12.90;90.30;;;;;;4996270;28;20210;-77
2022/04/19 06:42:36;;;;;;;10.20;3.40;;;12.90;90.40;;;;;;4996137;28;20174;-76
2022/04/19 06:45:02;;;;;;;4.10;3.10;;;12.80;91.30;;;;;;4995966;28;20786;-76
2022/04/19 06:47:27;;;;;;;4.20;3.80;;;12.80;90.60;;;;;;4995479;28;20174;-75
2022/04/19 06:49:57;;;;;;;3.77;3.00;;;;;;;;;;4978665;28;20416;-76
2022/04/19 06:52:23;;;;;;;6.60;3.50;;;13.80;89.70;;;;;;4978616;28;20287;-76
2022/04/19 06:54:49;;;;;;;4.00;3.23;;;14.70;85.80;;;;;;4996141;28;20416;-76
2022/04/19 06:57:14;;;;;;;3.87;3.47;;;15.80;84.10;;;;;;4995823;28;20468;-76
2022/04/19 06:59:39;;;;;;;6.03;3.00;;;16.10;79.70;;;;;;4995465;28;20214;-76
2022/04/19 07:02:06;;;;;;;6.03;3.67;;;;;;;;;;4995686;28;20210;-74
2022/04/19 07:04:31;;;;;;;3.47;3.17;;;15.60;82.50;;;;;;4996012;28;20217;-74
2022/04/19 07:06:57;;;;;;;4.63;3.00;;;15.60;83.00;;;;;;4995940;28;20420;-74
2022/04/19 07:09:22;;;;;;;3.57;2.90;;;;;;;;;;4995250;28;20177;-74
2022/04/19 07:11:48;;;;;;;3.93;3.00;;;15.40;84.20;;;;;;4995922;28;20193;-74
2022/04/19 07:14:13;;;;;;;4.33;2.73;;;15.80;83.70;;;;;;4995646;28;20201;-75
2022/04/19 07:16:39;;;;;;;5.13;3.50;;;15.60;81.40;;;;;;4995798;28;20204;-75
2022/04/19 07:19:04;;;;;;;4.00;2.90;;;15.10;80.80;;;;;;4977699;28;20178;-75
2022/04/19 07:26:59;;;;;;;3.87;3.00;;;15.20;83.20;;;;;;4995811;28;20415;-75
2022/04/19 07:29:24;;;;;;;3.83;3.00;;;14.90;82.10;;;;;;4994781;28;20472;-77
2022/04/19 07:31:51;;;;;;;5.30;3.60;;;15.00;84.40;;;;;;4995482;28;20432;-76
2022/04/19 07:34:16;;;;;;;5.93;3.27;;;15.10;83.70;;;;;;4995326;28;20174;-77
2022/04/19 07:36:42;;;;;;;3.00;2.70;;;15.40;81.50;;;;;;4995289;28;20456;-76
2022/04/19 07:39:09;;;;;;;7.50;3.10;;;15.10;81.60;;;;;;4976661;28;20169;-76
2022/04/19 07:41:35;;;;;;;5.27;3.20;;;15.40;83.20;;;;;;4995217;28;20441;-76
2022/04/19 07:44:01;;;;;;;5.37;3.60;;;14.90;81.40;;;;;;4995291;28;20455;-76
2022/04/19 07:46:28;;;;;;;6.27;3.40;;;13.80;86.90;;;;;;4995429;28;20590;-76
2022/04/19 07:48:54;;;;;;;4.43;4.00;;;12.70;87.50;;;;;;4994425;28;20417;-75
2022/04/19 07:51:20;;;;;;;3.93;3.13;;;12.00;91.20;;;;;;4994991;28;20439;-75
2022/04/19 07:53:45;;;;;;;3.10;2.80;;;11.60;93.10;;;;;;4995043;28;20252;-77
2022/04/19 07:56:11;;;;;;;5.70;3.10;;;10.70;95.40;;;;;;4995053;28;20224;-77
2022/04/19 07:58:37;;;;;;;4.67;3.20;;;9.80;96.30;;;;;;4994242;28;20174;-75
2022/04/19 08:01:03;;;;;;;4.60;2.83;;;9.30;96.30;;;;;;4994716;28;20205;-75
2022/04/19 08:03:28;;;;;;;5.87;2.50;;;8.90;96.30;;;;;;4977400;28;20177;-74
2022/04/19 08:05:54;;;;;;;3.53;2.70;;;9.10;96.30;;;;;;4994791;28;20425;-77
2022/04/19 08:08:21;;;;;;;5.73;2.37;;;9.50;96.30;;;;;;4994195;28;20177;-76
2022/04/19 08:10:47;;;;;;;6.17;2.67;;;9.50;96.30;;;;;;4994661;28;20479;-75
2022/04/19 08:13:13;;;;;;;2.90;2.57;;;9.50;96.30;;;;;;4994777;28;20484;-76
2022/04/19 08:15:39;;;;;;;3.00;2.23;;;9.20;96.30;;;;;;4977563;28;20653;-75
2022/04/19 08:18:04;;;;;;;3.93;3.03;;;9.20;96.30;;;;;;4994036;28;20205;-75
2022/04/19 08:20:30;;;;;;;4.00;2.77;;;9.90;96.30;;;;;;4994468;28;20559;-76
2022/04/19 08:22:55;;;;;;;4.93;3.50;;;10.40;96.30;;;;;;4994482;28;20182;-75
2022/04/19 08:25:22;;;;;;;4.47;3.20;;;10.50;95.50;;;;;;4977345;28;20248;-75
2022/04/19 08:27:47;;;;;;;5.20;3.60;;;10.30;95.00;;;;;;4994262;28;20522;-75
2022/04/19 08:30:15;;;;;;;4.93;3.20;;;9.70;96.30;;;;;;4994370;28;20547;-76
2022/04/19 08:32:42;;;;;;;3.40;3.10;;;10.00;96.30;;;;;;4994556;28;20185;-76
2022/04/19 08:35:08;;;;;;;4.57;2.90;;;10.20;96.30;;;;;;4994546;28;20421;-75
2022/04/19 08:37:35;;;;;;;4.40;3.40;;;9.80;96.30;;;;;;4993876;28;20459;-75
2022/04/19 08:40:03;;;;;;;3.33;2.80;;;10.30;96.30;;;;;;4994409;28;20405;-75
2022/04/19 08:42:29;;;;;;;6.87;3.50;;;10.50;94.90;;;;;;4994005;28;20452;-75
2022/04/19 08:45:02;;;;;;;5.40;3.60;;;11.30;92.70;;;;;;4994241;28;20417;-76
2022/04/19 08:47:30;;;;;;;4.60;3.80;;;10.80;90.20;;;;;;4976271;28;20220;-75
2022/04/19 08:49:56;;;;;;;7.13;3.60;;;12.10;92.40;;;;;;4994050;28;20503;-75
2022/04/19 08:52:21;;;;;;;4.73;3.70;;;12.10;91.80;;;;;;4992959;28;20491;-76
2022/04/19 08:57:33;;;;;;;6.90;3.90;;;;;;;;;;4993309;28;20279;-74
2022/04/19 09:00:00;;;;;;;5.53;3.47;;;11.80;90.40;;;;;;4976418;28;20948;-76
2022/04/19 09:02:29;;;;;;;5.00;3.90;;;11.30;88.90;;;;;;4993616;28;20460;-75
2022/04/19 09:05:14;;;;;;;5.67;3.57;;;10.60;93.10;;;;;;4993744;28;20972;-75
2022/04/19 09:07:41;;;;;;;4.73;3.73;;;10.20;95.60;;;;;;4993120;28;20889;-75
2022/04/19 09:10:07;;;;;;;6.17;4.20;;;9.90;94.10;;;;;;4993678;28;20409;-75
2022/04/19 09:12:59;;;;;;;5.00;3.67;;;10.10;94.00;;;;;;5146633;27;20308;-75
2022/04/19 09:15:38;;;;;;;5.97;3.80;;;11.00;95.60;;;;;;5130530;28;20417;-77
2022/04/19 09:18:05;;;;;;;5.63;3.60;;;11.80;89.20;;;;;;5129938;28;20383;-76
2022/04/19 09:20:31;;;;;;;5.60;3.93;;;11.60;90.70;;;;;;5130429;27;20837;-76
2022/04/19 09:23:12;;;;;;;4.40;3.30;;;11.70;91.10;;;;;;5130632;28;20463;-74
2022/04/19 09:25:39;;;;;;;4.50;3.57;;;11.50;86.40;;;;;;5130354;27;20398;-75
2022/04/19 09:28:16;;;;;;;4.07;3.37;;;11.70;87.70;;;;;;5128515;27;20438;-75
2022/04/19 09:30:42;;;;;;;6.33;3.90;;;;;;;;;;5128902;28;20456;-75
2022/04/19 09:33:12;;;;;;;3.70;3.00;;;11.50;86.30;;;;;;5128918;27;20902;-76
2022/04/19 09:35:48;;;;;;;5.53;3.20;;;11.90;85.50;;;;;;5130201;27;20403;-77
2022/04/19 09:38:14;;;;;;;3.83;3.40;;;11.60;84.80;;;;;;5129612;28;20403;-75
2022/04/19 09:40:48;;;;;;;5.73;3.80;;;11.00;91.00;;;;;;5128648;28;20517;-76
2022/04/19 09:43:20;;;;;;;5.10;3.63;;;11.10;92.10;;;;;;5130094;28;20429;-76
2022/04/19 09:45:59;;;;;;;7.50;4.07;;;11.60;87.60;;;;;;5128777;28;20411;-75
2022/04/19 09:48:27;;;;;;;12.93;3.10;;;11.30;90.70;;;;;;5129402;28;20406;-75
2022/04/19 09:50:58;;;;;;;10.70;3.50;;;11.30;86.70;;;;;;5129850;28;20450;-75
2022/04/19 09:53:26;;;;;;;4.30;2.67;;;11.80;86.20;;;;;;5129864;28;20403;-76
2022/04/19 09:55:54;;;;;;;3.60;3.00;;;11.70;83.00;;;;;;5129772;28;20406;-76
2022/04/19 09:58:20;;;;;;;8.70;3.20;;;11.70;84.90;;;;;;5129133;28;20398;-76
2022/04/19 10:00:47;;;;;;;13.03;2.60;;;11.70;86.70;;;;;;5129310;28;20434;-76
2022/04/19 10:08:48;;;;;;;3.17;1.87;;;;;;;;;;5128926;27;20818;-75
2022/04/19 10:11:15;;;;;;;3.70;2.43;;;11.80;82.40;;;;;;5129083;27;20881;-75
2022/04/19 10:13:41;;;;;;;3.53;2.00;;;11.60;81.60;;;;;;5128904;28;20861;-77
2022/04/19 10:16:14;;;;;;;3.23;2.07;;;11.30;81.50;;;;;;5130464;27;20933;-75
2022/04/19 10:18:40;;;;;;;2.70;1.73;;;;;;;;;;5127824;28;20163;-75
2022/04/19 14:02:37;;;;;;;9.23;1.30;;;9.80;84.90;;;;;;6083186;22;20507;-74
2022/04/19 14:05:02;;;;;;;1.47;1.00;;;9.60;82.90;;;;;;5034347;28;20408;-74
2022/04/19 14:07:28;;;;;;;3.57;1.13;;;9.50;83.60;;;;;;5034794;28;20637;-74
2022/04/19 14:09:54;;;;;;;1.60;1.13;;;9.40;84.80;;;;;;5035070;28;20169;-74
2022/04/19 14:12:21;;;;;;;2.23;1.20;;;9.20;85.80;;;;;;5035124;28;20216;-74
2022/04/19 14:14:46;;;;;;;2.10;1.50;;;9.00;88.80;;;;;;5034006;28;20176;-74
2022/04/19 14:17:12;;;;;;;2.57;1.33;;;8.70;92.00;;;;;;5035103;28;20506;-74
2022/04/19 14:19:39;;;;;;;1.50;1.03;;;;;;;;;;5033274;28;20227;-74
2022/04/19 14:22:04;;;;;;;2.03;1.67;;;8.50;91.80;;;;;;5033568;28;20675;-74
2022/04/19 14:24:30;;;;;;;1.43;1.20;;;8.60;89.50;;;;;;5033507;28;20480;-74
2022/04/19 14:26:55;;;;;;;2.13;1.20;;;8.90;90.00;;;;;;5034643;28;20544;-75
2022/04/19 14:34:49;;;;;;;1.50;1.10;;;9.40;87.10;;;;;;5034576;28;20414;-76
2022/04/19 14:37:14;;;;;;;1.30;1.20;;;9.50;86.70;;;;;;5034446;28;20776;-75
2022/04/19 14:39:40;;;;;;;6.47;1.57;;;9.50;88.10;;;;;;5033924;28;20176;-75
2022/04/19 14:42:05;;;;;;;3.80;1.50;;;9.60;88.20;;;;;;5033098;28;20699;-76
2022/04/19 14:44:31;;;;;;;1.27;1.10;;;10.20;87.10;;;;;;5033074;28;20702;-76
2022/04/19 14:46:56;;;;;;;1.93;1.40;;;10.70;87.90;;;;;;5032961;28;20690;-75
2022/04/19 14:49:22;;;;;;;2.10;1.47;;;10.60;86.50;;;;;;5032232;28;20180;-76
2022/04/19 14:54:31;;;;;;;3.33;1.43;;;10.30;84.80;;;;;;5034552;28;20651;-76
2022/04/19 14:56:57;;;;;;;7.33;1.27;;;10.00;86.80;;;;;;5034186;28;20407;-76
2022/04/19 14:59:22;;;;;;;7.90;1.50;;;9.60;86.20;;;;;;5033391;28;20485;-75
2022/04/19 15:01:51;;;;;;;1.93;1.60;;;9.30;87.40;;;;;;5034424;28;20220;-76
2022/04/19 15:04:16;;;;;;;1.80;1.50;;;9.00;88.90;;;;;;5034816;28;20218;-76
2022/04/19 15:06:42;;;;;;;2.67;1.77;;;8.90;86.90;;;;;;5034114;28;20403;-76
2022/04/19 15:09:08;;;;;;;2.07;1.30;;;9.00;87.80;;;;;;5033253;28;20172;-75
2022/04/19 15:11:33;;;;;;;4.17;1.80;;;9.30;87.00;;;;;;5033690;28;20313;-75
2022/04/19 15:13:59;;;;;;;8.33;1.73;;;9.30;87.40;;;;;;5033877;28;20180;-76
2022/04/19 15:16:25;;;;;;;2.00;1.70;;;9.10;88.50;;;;;;5032522;28;20176;-75
2022/04/19 15:18:51;;;;;;;1.93;1.70;;;8.90;89.20;;;;;;5033125;28;20175;-75
2022/04/19 15:21:17;;;;;;;1.63;1.40;;;8.70;91.20;;;;;;5033559;28;20529;-76
2022/04/19 15:23:43;;;;;;;3.40;1.40;;;8.40;91.50;;;;;;5033697;28;20179;-76
2022/04/19 15:26:08;;;;;;;2.67;1.27;;;8.50;89.70;;;;;;5033648;28;20415;-75
2022/04/19 15:28:33;;;;;;;2.60;1.87;;;8.40;89.40;;;;;;5033072;28;20172;-74
2022/04/19 15:30:59;;;;;;;2.40;1.50;;;8.50;89.60;;;;;;5033333;28;20226;-76
2022/04/19 15:33:25;;;;;;;2.33;1.43;;;8.70;91.20;;;;;;5033430;28;20205;-76
2022/04/19 15:35:51;;;;;;;1.73;1.40;;;8.80;89.30;;;;;;5032156;28;20207;-75
2022/04/19 15:38:16;;;;;;;5.23;1.40;;;8.90;90.20;;;;;;5032847;28;20835;-75
2022/04/19 15:40:42;;;;;;;9.00;1.80;;;8.80;90.00;;;;;;5032052;28;20192;-76
2022/04/19 15:43:07;;;;;;;1.77;1.43;;;9.10;89.60;;;;;;5033327;28;20183;-76
2022/04/19 15:45:36;;;;;;;4.00;1.67;;;9.00;88.80;;;;;;5033211;28;20168;-76
2022/04/19 15:48:02;;;;;;;5.17;1.90;;;9.20;88.10;;;;;;5032583;28;20537;-75
2022/04/19 15:50:31;;;;;;;2.53;1.30;;;9.50;87.70;;;;;;5031626;28;20821;-76
2022/04/19 15:52:57;;;;;;;2.07;1.60;;;9.50;87.90;;;;;;5033039;28;20416;-76
2022/04/19 15:55:23;;;;;;;2.00;1.80;;;9.10;88.80;;;;;;5032947;28;20965;-75
2022/04/19 15:57:49;;;;;;;2.07;1.60;;;8.50;90.40;;;;;;5032582;28;20403;-75
2022/04/19 16:00:15;;;;;;;4.77;1.60;;;8.50;91.30;;;;;;5032968;28;20171;-75
2022/04/19 16:02:41;;;;;;;2.10;1.70;;;8.10;92.80;;;;;;5032839;28;20245;-75
2022/04/19 16:05:07;;;;;;;2.83;1.87;;;8.00;94.00;;;;;;5032911;28;20525;-75
2022/04/19 16:07:33;;;;;;;2.20;1.47;;;7.80;94.90;;;;;;5032267;28;20165;-76
2022/04/19 16:09:58;;;;;;;2.83;1.60;;;8.00;95.00;;;;;;5032874;28;20415;-75
2022/04/19 16:12:24;;;;;;;5.90;2.37;;;8.00;94.90;;;;;;5031552;28;20571;-75
2022/04/19 16:14:50;;;;;;;3.03;2.40;;;8.10;95.10;;;;;;5032396;28;20208;-76
2022/04/19 16:25:15;;;;;;;4.80;1.80;;;8.60;91.60;;;;;;5752737;22;20477;-75
2022/04/19 16:27:41;;;;;;;2.97;1.80;;;8.30;90.40;;;;;;5032097;28;20410;-75
2022/04/19 16:30:08;;;;;;;2.43;1.70;;;8.30;90.80;;;;;;5032617;28;20168;-76
2022/04/19 16:32:34;;;;;;;3.17;1.40;;;8.30;89.80;;;;;;5032473;28;20207;-74
2022/04/19 16:35:00;;;;;;;2.90;1.70;;;8.30;89.20;;;;;;5032812;28;20418;-75
2022/04/19 16:37:27;;;;;;;2.97;1.50;;;8.10;90.60;;;;;;5030824;28;20259;-73
2022/04/19 16:39:53;;;;;;;6.43;1.90;;;8.10;90.60;;;;;;5032415;28;20402;-74
2022/04/19 16:42:18;;;;;;;3.23;1.90;;;8.10;91.70;;;;;;5032468;28;20780;-75
2022/04/19 16:44:44;;;;;;;2.80;1.93;;;8.00;92.10;;;;;;5032288;28;20184;-75
2022/04/19 16:47:09;;;;;;;3.07;1.80;;;7.80;92.90;;;;;;5032372;28;20575;-75
2022/04/19 16:49:35;;;;;;;1.93;1.73;;;7.80;93.80;;;;;;5031792;28;20180;-75
2022/04/19 16:52:01;;;;;;;2.77;2.47;;;7.70;94.10;;;;;;5032150;28;20675;-74
2022/04/19 16:54:29;;;;;;;3.40;3.00;;;7.50;94.80;;;;;;5032176;28;20913;-75
2022/04/19 16:56:55;;;;;;;5.03;1.80;;;7.60;95.30;;;;;;5032211;28;20172;-73
2022/04/19 16:59:20;;;;;;;6.63;2.60;;;7.60;95.70;;;;;;5030194;28;20446;-73
2022/04/19 17:01:46;;;;;;;5.07;2.63;;;7.50;95.80;;;;;;5032055;28;20435;-74
2022/04/19 17:04:12;;;;;;;2.80;2.17;;;7.60;96.10;;;;;;5032206;28;20536;-76
2022/04/19 17:06:38;;;;;;;2.13;1.90;;;7.70;96.30;;;;;;5031932;28;20203;-73
2022/04/19 17:09:09;;;;;;;2.43;2.07;;;7.90;95.80;;;;;;5031035;28;20172;-74
2022/04/19 17:11:35;;;;;;;2.47;2.00;;;8.00;95.50;;;;;;5031873;28;20286;-74
2022/04/19 17:14:01;;;;;;;4.17;2.47;;;7.90;95.40;;;;;;5031985;28;20399;-76
2022/04/19 17:16:26;;;;;;;2.90;1.80;;;7.70;95.50;;;;;;5032073;28;20453;-74
2022/04/19 17:18:52;;;;;;;3.50;2.03;;;7.70;96.30;;;;;;5030532;28;20553;-75
2022/04/19 17:21:17;;;;;;;2.23;2.03;;;7.60;96.30;;;;;;5031913;28;20324;-74
2022/04/19 17:23:44;;;;;;;4.40;1.90;;;7.60;95.90;;;;;;5032007;28;20219;-74
2022/04/19 17:26:09;;;;;;;3.03;2.47;;;7.60;96.30;;;;;;5031870;28;20183;-75
2022/04/19 17:28:35;;;;;;;3.33;1.93;;;7.70;96.30;;;;;;5030400;28;20422;-74
2022/04/19 17:31:00;;;;;;;5.47;2.10;;;7.90;95.30;;;;;;5031684;28;20760;-74
2022/04/19 17:33:26;;;;;;;2.50;1.97;;;7.80;95.00;;;;;;5034011;28;20165;-74
2022/04/19 17:35:51;;;;;;;4.43;2.43;;;7.70;94.60;;;;;;5035890;28;20218;-74
2022/04/19 17:38:18;;;;;;;3.40;2.00;;;7.40;93.80;;;;;;5035632;28;20168;-74
2022/04/19 17:40:43;;;;;;;2.50;1.90;;;7.30;94.30;;;;;;5035777;28;20809;-74
2022/04/19 17:43:09;;;;;;;3.67;2.30;;;7.20;94.70;;;;;;5035754;28;20415;-75
2022/04/19 17:45:35;;;;;;;12.80;2.50;;;7.20;94.90;;;;;;5035700;28;20247;-73
2022/04/19 17:48:01;;;;;;;2.27;1.90;;;7.10;95.00;;;;;;5034122;28;20629;-74
2022/04/19 17:58:40;;;;;;;6.50;2.20;;;6.80;96.00;;;;;;5035449;28;20402;-74
2022/04/19 18:01:08;;;;;;;3.63;2.30;;;6.80;96.30;;;;;;5035447;28;20426;-74
2022/04/19 18:03:34;;;;;;;3.50;2.30;;;6.80;96.30;;;;;;5035328;28;20169;-74
2022/04/19 18:06:01;;;;;;;4.80;2.60;;;6.60;96.30;;;;;;5034095;28;20418;-75
2022/04/19 18:08:27;;;;;;;2.60;2.00;;;6.70;96.30;;;;;;5035091;28;20648;-75
2022/04/19 18:10:52;;;;;;;2.60;2.17;;;6.50;96.30;;;;;;5033829;28;20474;-76
2022/04/19 18:13:17;;;;;;;4.27;2.47;;;6.60;96.30;;;;;;5035064;28;20183;-75
2022/04/19 18:15:43;;;;;;;6.63;2.03;;;6.60;96.30;;;;;;5035035;28;20588;-75
2022/04/19 18:18:09;;;;;;;5.27;2.33;;;6.60;96.30;;;;;;5034843;28;20173;-75
2022/04/19 18:20:34;;;;;;;5.20;2.50;;;6.50;96.30;;;;;;5033632;28;20441;-74
2022/04/19 18:25:44;;;;;;;3.13;2.20;;;6.50;96.30;;;;;;5034854;28;20241;-75
2022/04/19 18:28:10;;;;;;;4.27;2.90;;;6.50;96.30;;;;;;5034654;28;20411;-74
2022/04/19 18:30:35;;;;;;;2.90;2.40;;;6.40;96.30;;;;;;5034791;28;20589;-75
2022/04/19 18:33:01;;;;;;;10.13;3.50;;;6.30;96.30;;;;;;5034856;28;20183;-74
2022/04/19 18:35:26;;;;;;;3.50;2.90;;;6.30;96.30;;;;;;5034690;28;20176;-74
2022/04/19 18:37:52;;;;;;;4.80;2.43;;;6.20;96.30;;;;;;5034532;28;20222;-74
2022/04/19 18:40:19;;;;;;;2.63;2.43;;;6.10;96.30;;;;;;5033343;28;20634;-74
2022/04/19 18:42:45;;;;;;;4.13;2.60;;;6.10;96.30;;;;;;5033179;28;20507;-74
2022/04/19 18:45:11;;;;;;;4.63;2.90;;;6.00;96.30;;;;;;5034225;28;20434;-75
2022/04/19 18:47:36;;;;;;;3.43;2.70;;;5.90;96.30;;;;;;5034329;28;20445;-75
2022/04/19 18:50:04;;;;;;;4.87;2.53;;;5.90;96.30;;;;;;5034546;28;20176;-74
2022/04/19 18:52:29;;;;;;;3.83;2.97;;;5.80;96.30;;;;;;5034292;28;20573;-73
2022/04/19 18:54:55;;;;;;;6.23;3.70;;;5.70;96.30;;;;;;5036455;28;20419;-75
2022/04/19 18:57:20;;;;;;;5.30;3.63;;;5.60;96.30;;;;;;5048644;28;20203;-76
2022/04/19 18:59:46;;;;;;;10.20;3.80;;;5.40;96.30;;;;;;5045383;28;20179;-76
2022/04/19 19:02:12;;;;;;;8.67;4.47;;;5.40;96.30;;;;;;5043020;28;20196;-75
2022/04/19 19:04:41;;;;;;;11.27;6.47;;;5.30;96.30;;;;;;5035263;28;20172;-75
2022/04/19 19:07:07;;;;;;;9.87;5.77;;;5.10;96.30;;;;;;5043707;28;20180;-74
2022/04/19 19:09:33;;;;;;;9.40;5.57;;;4.80;96.30;;;;;;5053646;28;20478;-75
2022/04/19 19:11:59;;;;;;;8.47;4.57;;;4.50;96.30;;;;;;5050399;28;20200;-76
2022/04/19 19:14:25;;;;;;;10.30;5.07;;;4.30;96.30;;;;;;5033261;28;20415;-76
2022/04/19 19:16:51;;;;;;;10.70;4.60;;;4.10;96.30;;;;;;5043455;28;20417;-75
2022/04/19 19:19:17;;;;;;;16.30;7.97;;;3.90;96.30;;;;;;5049889;28;20229;-76
2022/04/19 19:21:42;;;;;;;23.63;14.50;;;3.70;96.30;;;;;;5047977;28;20196;-76
2022/04/19 19:24:10;;;;;;;34.00;20.83;;;3.50;96.30;;;;;;5049700;28;20422;-76
2022/04/19 19:26:36;;;;;;;42.07;22.53;;;3.30;96.30;;;;;;5053581;28;20187;-74
2022/04/19 19:29:07;;;;;;;27.80;18.47;;;3.10;96.30;;;;;;5049212;28;20482;-76
2022/04/19 19:31:34;;;;;;;27.57;14.73;;;2.90;96.30;;;;;;5042511;28;20459;-75
2022/04/19 19:34:00;;;;;;;17.13;9.83;;;2.80;96.30;;;;;;5046437;28;20467;-77
2022/04/19 19:36:27;;;;;;;8.93;5.87;;;2.50;96.30;;;;;;5035166;28;20461;-75
2022/04/19 19:38:54;;;;;;;7.23;4.80;;;2.50;96.30;;;;;;5033184;28;20418;-75
2022/04/19 19:41:20;;;;;;;8.33;4.90;;;2.30;96.30;;;;;;5030452;28;20489;-76
2022/04/19 19:43:45;;;;;;;6.47;3.97;;;2.30;96.30;;;;;;5033321;28;20926;-76
2022/04/19 19:46:11;;;;;;;6.83;3.43;;;2.20;96.30;;;;;;5032109;28;20180;-75
2022/04/19 19:48:38;;;;;;;9.63;4.17;;;2.10;96.30;;;;;;5035101;28;20542;-75
2022/04/19 19:51:04;;;;;;;4.17;3.47;;;2.10;96.30;;;;;;5043117;28;20541;-76
2022/04/19 19:53:30;;;;;;;7.43;3.50;;;2.00;96.30;;;;;;5042655;28;20422;-75
2022/04/19 19:55:56;;;;;;;4.83;2.97;;;2.00;96.30;;;;;;5044172;28;20419;-74
2022/04/19 19:58:21;;;;;;;5.00;3.23;;;1.90;96.30;;;;;;5049834;28;20562;-74
2022/04/19 20:00:47;;;;;;;3.20;2.90;;;;;;;;;;5040432;28;20202;-75
2022/04/19 20:03:13;;;;;;;5.40;4.07;;;;;;;;;;5042793;28;20891;-75
2022/04/19 20:05:39;;;;;;;5.60;2.90;;;1.70;96.30;;;;;;5040626;28;20180;-75
2022/04/19 20:08:06;;;;;;;5.23;3.50;;;1.70;96.30;;;;;;5041105;28;20887;-73
2022/04/19 20:10:33;;;;;;;4.83;3.40;;;1.60;96.30;;;;;;5039875;28;20271;-74
2022/04/19 20:13:00;;;;;;;12.13;3.10;;;1.50;96.30;;;;;;5041688;28;20461;-75
2022/04/19 20:15:26;;;;;;;5.00;3.53;;;1.50;96.30;;;;;;5046444;28;20479;-75
2022/04/19 20:17:52;;;;;;;4.87;3.80;;;;;;;;;;5034167;28;20414;-74
2022/04/19 20:20:18;;;;;;;4.07;3.27;;;1.40;96.30;;;;;;5036243;28;20417;-74
2022/04/19 20:22:43;;;;;;;7.93;4.87;;;1.40;96.30;;;;;;5031579;28;20506;-75
2022/04/19 20:25:09;;;;;;;8.47;3.80;;;1.40;96.30;;;;;;5032698;28;20283;-74
2022/04/19 20:27:35;;;;;;;7.37;4.00;;;1.40;96.30;;;;;;5031926;28;20302;-74
2022/04/19 20:30:02;;;;;;;6.00;2.93;;;1.30;96.30;;;;;;5043712;28;20422;-75
2022/04/19 20:32:27;;;;;;;4.47;3.73;;;1.30;96.30;;;;;;5052474;28;20454;-72
2022/04/19 20:34:53;;;;;;;17.07;9.57;;;1.40;96.30;;;;;;5052512;28;20558;-74
2022/04/19 20:37:18;;;;;;;26.10;12.47;;;1.40;96.30;;;;;;5052455;28;20182;-73
2022/04/19 20:39:44;;;;;;;15.57;9.07;;;1.40;96.30;;;;;;5052272;28;20172;-73
2022/04/19 20:42:09;;;;;;;5.83;4.33;;;1.30;96.30;;;;;;5052559;28;20282;-74
2022/04/19 20:44:37;;;;;;;5.90;3.73;;;1.10;96.30;;;;;;5052421;28;20176;-75
2022/04/19 20:52:33;;;;;;;9.30;6.47;;;1.00;96.30;;;;;;5032638;28;20501;-75
2022/04/19 20:54:58;;;;;;;8.70;4.90;;;0.90;96.30;;;;;;5032337;28;20415;-75
2022/04/19 20:57:24;;;;;;;9.90;6.97;;;0.90;96.30;;;;;;5032422;28;20469;-76
2022/04/19 20:59:50;;;;;;;18.00;10.37;;;1.00;96.30;;;;;;5032272;28;20176;-75
2022/04/19 21:02:16;;;;;;;21.83;11.93;;;1.00;96.30;;;;;;5034538;28;20458;-77
2022/04/19 21:04:41;;;;;;;17.77;10.23;;;1.00;96.30;;;;;;5035512;28;20203;-78
2022/04/19 21:07:07;;;;;;;15.30;9.40;;;1.00;96.30;;;;;;5035254;28;20172;-78
2022/04/19 21:09:33;;;;;;;12.40;6.90;;;0.90;96.30;;;;;;5035960;28;20259;-77
2022/04/19 21:11:58;;;;;;;10.53;6.20;;;0.80;96.30;;;;;;5031231;28;20208;-77
2022/04/19 21:14:24;;;;;;;8.90;5.80;;;0.80;96.30;;;;;;5031999;28;20206;-77
2022/04/19 21:16:50;;;;;;;9.73;5.20;;;;;;;;;;5032054;28;20172;-78
2022/04/19 21:19:16;;;;;;;8.17;5.07;;;0.70;96.30;;;;;;5030088;28;20517;-77
2022/04/19 21:21:41;;;;;;;9.83;5.33;;;0.60;96.30;;;;;;5030523;28;20589;-77
2022/04/19 21:24:07;;;;;;;5.33;3.80;;;0.50;96.30;;;;;;5030577;28;20207;-77
2022/04/19 21:26:32;;;;;;;7.17;4.10;;;0.30;96.30;;;;;;5030533;28;20241;-77
2022/04/19 21:28:58;;;;;;;5.17;3.57;;;0.10;96.30;;;;;;5029991;28;20179;-78